This is the latest recevied weather packets stored in our database for station/object KC3ULW-13. If no packets are shown the sender has not sent any weather packets the latest 10 day(s).
| Time | Temp. | Humidity | Pressure | Rain* | Wind** | Luminosity | Snow |
|---|---|---|---|---|---|---|---|
| 1777732906 | 7.78° C | 70% | 1017.3 hPa | 0 mm | - | 25 W/m² | - |
| 1777732602 | 8.89° C | 69% | 1017.5 hPa | 0 mm | - | 180 W/m² | - |
| 1777732300 | 8.33° C | 70% | 1017.7 hPa | 0 mm | - | 223 W/m² | - |
| 1777731997 | 7.78° C | 73% | 1017.6 hPa | 0 mm | - | 741 W/m² | - |
| 1777731694 | 7.22° C | 74% | 1017.7 hPa | 0 mm | - | 698 W/m² | - |
| 1777731391 | 7.22° C | 76% | 1017.7 hPa | 0 mm | - | 259 W/m² | - |
| 1777731089 | 6.67° C | 78% | 1017.8 hPa | 0 mm | - | 276 W/m² | - |
| 1777730787 | 7.78° C | 76% | 1017.9 hPa | 0 mm | - | 470 W/m² | - |
| 1777730483 | 7.22° C | 79% | 1017.9 hPa | 0 mm | - | 225 W/m² | - |
| 1777730180 | 7.78° C | 79% | 1017.9 hPa | 0 mm | - | 352 W/m² | - |
| 1777729877 | 6.67° C | 81% | 1017.7 hPa | 0 mm | - | 574 W/m² | - |
| 1777729573 | 6.11° C | 83% | 1017.9 hPa | 0 mm | - | 529 W/m² | - |
| 1777729270 | 5.56° C | 85% | 1017.7 hPa | 0 mm | - | 229 W/m² | - |
| 1777728967 | 5° C | 87% | 1018 hPa | 0 mm | - | 308 W/m² | - |
| 1777728663 | 5° C | 90% | 1017.9 hPa | 0 mm | - | 103 W/m² | - |
| 1777728360 | 5° C | 91% | 1017.9 hPa | 0 mm | - | 152 W/m² | - |
| 1777728057 | 5° C | 92% | 1018 hPa | 0 mm | - | 118 W/m² | - |
| 1777727754 | 4.44° C | 92% | 1017.9 hPa | 0 mm | - | 143 W/m² | - |
| 1777727451 | 5° C | 93% | 1018.2 hPa | 0 mm | - | 84 W/m² | - |
| 1777727148 | 4.44° C | 93% | 1018 hPa | 0 mm | - | 144 W/m² | - |
| 1777726847 | 4.44° C | 93% | 1018.2 hPa | 0 mm | - | 120 W/m² | - |
| 1777726542 | 4.44° C | 93% | 1017.9 hPa | 0 mm | - | 136 W/m² | - |
| 1777726240 | 3.89° C | 93% | 1018.2 hPa | 0 mm | - | 112 W/m² | - |
| 1777725936 | 4.44° C | 94% | 1018 hPa | 0 mm | - | 116 W/m² | - |
| 1777725634 | 3.89° C | 94% | 1018.2 hPa | 0 mm | - | 112 W/m² | - |
* Rain latest hour (hover to see other rain measurements)
** Current wind speed in m/s (hover to see current wind gust speed)